Alumine, Argentina
Current Conditions -  °F | °C
As of 6:00 AM on Friday 19 Dec 2014 (Local Time) from SCQP Reporting Station
Drizzle Drizzle  
Wind Chill: 54°   Ceiling: 1100
Heat Index: 54°   Visibility: 3mi
Dew Point: 52°   Wind: 5mph
Humidity: 94%   Direction: 340°NNW
Pressure: 29.91"   Gusts: NA
Location:  39.22°S, 70.95°W
Report Text: SCQP 190900Z 34004KT 5000 DZ OVC011 12/11 Q1013
Loading
Personal Weather Stations






























Interactive Weather Map New forecast layout! Learn more

10-Day Weather Forecast

Advertisements
Track Severe Weather on mobile